Time;durP1;ratioP1;P1;durP2;ratioP2;P2;SDS_P1;SDS_P2;PMS_P1;PMS_P2;Temp;Humidity;BMP_temperature;BMP_pressure;BME280_temperature;BME280_humidity;BME280_pressure;Samples;Min_cycle;Max_cycle;Signal;HPM_P1;HPM_P2
2021/03/26 00:00:35;;;;;;;1.53;1.20;;;8.80;98.20;;;;;;5007584;28;20460;-79
2021/03/26 00:03:03;;;;;;;1.50;1.20;;;8.80;98.20;;;;;;5008083;28;20894;-79
2021/03/26 00:05:30;;;;;;;1.57;1.30;;;8.70;98.20;;;;;;5001284;28;20488;-79
2021/03/26 00:07:56;;;;;;;1.53;1.20;;;8.70;98.20;;;;;;5012297;28;20506;-78
2021/03/26 00:10:22;;;;;;;1.57;1.30;;;8.60;98.20;;;;;;5004120;28;20888;-79
2021/03/26 00:12:49;;;;;;;1.57;1.20;;;8.60;98.20;;;;;;5012759;28;20487;-79
2021/03/26 00:15:16;;;;;;;1.57;1.20;;;8.60;98.20;;;;;;5007984;28;20460;-78
2021/03/26 00:17:43;;;;;;;1.57;1.17;;;8.50;98.20;;;;;;5012938;28;20494;-79
2021/03/26 00:20:10;;;;;;;1.60;1.20;;;8.50;98.20;;;;;;5003824;28;20472;-79
2021/03/26 00:22:37;;;;;;;1.60;1.20;;;8.40;98.20;;;;;;5009721;28;21082;-79
2021/03/26 00:25:06;;;;;;;1.60;1.30;;;8.40;98.20;;;;;;5011059;28;20495;-79
2021/03/26 00:27:32;;;;;;;1.57;1.20;;;8.40;98.20;;;;;;5007256;28;21021;-79
2021/03/26 00:29:59;;;;;;;1.60;1.30;;;8.40;98.20;;;;;;5008351;28;20464;-79
2021/03/26 00:32:26;;;;;;;1.53;1.20;;;8.40;98.20;;;;;;5008884;28;20491;-79
2021/03/26 00:34:54;;;;;;;1.53;1.20;;;8.40;98.20;;;;;;5009227;28;20816;-78
2021/03/26 00:37:21;;;;;;;1.60;1.40;;;8.40;98.20;;;;;;5005049;28;20541;-79
2021/03/26 00:39:48;;;;;;;1.60;1.20;;;8.40;98.20;;;;;;5012950;28;20836;-79
2021/03/26 00:42:14;;;;;;;1.57;1.20;;;8.40;98.20;;;;;;4998577;28;20494;-79
2021/03/26 00:44:40;;;;;;;1.53;1.20;;;8.40;98.20;;;;;;5007692;28;20676;-79
2021/03/26 00:47:07;;;;;;;1.57;1.20;;;8.30;98.20;;;;;;4995655;28;20504;-80
2021/03/26 00:49:34;;;;;;;1.60;1.23;;;8.30;98.20;;;;;;5008168;28;20464;-80
2021/03/26 00:52:01;;;;;;;1.60;1.20;;;8.30;98.20;;;;;;5003834;28;20484;-78
2021/03/26 00:54:27;;;;;;;1.50;1.20;;;8.30;98.20;;;;;;5016969;28;20533;-79
2021/03/26 00:56:53;;;;;;;1.53;1.20;;;8.30;98.20;;;;;;5008577;28;20494;-79
2021/03/26 00:59:19;;;;;;;1.50;1.20;;;8.20;98.20;;;;;;5015813;28;20503;-79
2021/03/26 01:01:46;;;;;;;1.57;1.20;;;8.20;98.20;;;;;;4998241;28;20535;-79
2021/03/26 01:04:12;;;;;;;1.60;1.30;;;8.20;98.20;;;;;;5010865;28;20667;-78
2021/03/26 01:06:39;;;;;;;1.60;1.30;;;8.20;98.20;;;;;;5002465;28;20602;-79
2021/03/26 01:09:06;;;;;;;1.53;1.20;;;8.20;98.20;;;;;;5013245;28;20605;-79
2021/03/26 01:11:35;;;;;;;1.57;1.20;;;8.20;98.20;;;;;;5002044;28;20770;-79
2021/03/26 01:14:02;;;;;;;1.60;1.30;;;8.10;98.20;;;;;;5014747;28;20539;-79
2021/03/26 01:16:29;;;;;;;1.53;1.20;;;8.10;98.20;;;;;;4998818;28;21011;-79
2021/03/26 01:18:55;;;;;;;1.57;1.30;;;8.10;98.20;;;;;;5016415;28;20464;-79
2021/03/26 01:21:25;;;;;;;1.53;1.20;;;8.10;98.20;;;;;;4996301;28;20509;-79
2021/03/26 01:23:53;;;;;;;1.50;1.20;;;8.00;98.20;;;;;;5013849;28;20543;-79
2021/03/26 01:26:19;;;;;;;1.60;1.30;;;8.00;98.20;;;;;;4993403;28;20486;-79
2021/03/26 01:28:47;;;;;;;1.57;1.20;;;8.00;98.20;;;;;;5023236;28;20563;-78
2021/03/26 01:31:13;;;;;;;1.60;1.20;;;8.00;98.20;;;;;;5001469;28;20502;-79
2021/03/26 01:33:41;;;;;;;1.60;1.20;;;8.00;98.20;;;;;;5009009;28;20547;-79
2021/03/26 01:36:08;;;;;;;1.60;1.20;;;7.90;98.20;;;;;;4995962;28;22546;-79
2021/03/26 01:38:34;;;;;;;1.57;1.27;;;7.90;98.20;;;;;;5020774;28;20551;-79
2021/03/26 01:41:04;;;;;;;1.53;1.10;;;7.90;98.20;;;;;;4999281;28;20468;-79
2021/03/26 01:43:33;;;;;;;1.60;1.30;;;7.90;98.20;;;;;;5018394;28;20469;-79
2021/03/26 01:46:00;;;;;;;1.53;1.20;;;7.80;98.20;;;;;;4998018;28;20578;-79
2021/03/26 01:48:30;;;;;;;1.60;1.30;;;7.80;98.20;;;;;;5022997;28;20522;-79
2021/03/26 01:50:57;;;;;;;1.60;1.30;;;7.70;98.20;;;;;;4994237;28;20464;-79
2021/03/26 01:53:25;;;;;;;1.57;1.20;;;7.70;98.20;;;;;;5019101;28;20470;-79
2021/03/26 01:55:53;;;;;;;1.57;1.20;;;7.70;98.20;;;;;;4997560;28;20551;-79
2021/03/26 01:58:24;;;;;;;1.60;1.20;;;7.60;98.20;;;;;;5006852;28;20472;-79
2021/03/26 02:00:54;;;;;;;1.60;1.30;;;7.60;98.20;;;;;;5000762;28;20459;-79
2021/03/26 02:03:24;;;;;;;1.60;1.20;;;7.60;98.20;;;;;;5022769;28;20464;-79
2021/03/26 02:05:52;;;;;;;1.57;1.20;;;7.60;98.20;;;;;;5000938;28;20488;-79
2021/03/26 02:08:22;;;;;;;1.60;1.30;;;7.50;98.20;;;;;;5024994;28;20551;-79
2021/03/26 02:10:49;;;;;;;1.60;1.30;;;7.50;98.20;;;;;;4995779;28;20990;-77
2021/03/26 02:13:41;;;;;;;1.60;1.30;;;7.50;98.20;;;;;;5025657;28;20495;-77
2021/03/26 02:16:10;;;;;;;1.57;1.20;;;7.50;98.20;;;;;;4996597;28;20634;-79
2021/03/26 02:18:39;;;;;;;1.60;1.37;;;7.40;98.20;;;;;;5021413;28;20471;-79
2021/03/26 02:21:08;;;;;;;1.60;1.20;;;7.40;98.20;;;;;;5000179;28;20474;-79
2021/03/26 02:23:37;;;;;;;1.60;1.20;;;7.40;98.20;;;;;;5023696;28;20460;-79
2021/03/26 02:26:08;;;;;;;1.60;1.20;;;7.40;98.20;;;;;;5004469;28;20492;-79
2021/03/26 02:28:34;;;;;;;1.60;1.30;;;7.30;98.20;;;;;;5018402;28;20486;-79
2021/03/26 02:31:01;;;;;;;1.60;1.20;;;7.30;98.20;;;;;;5001537;28;20514;-79
2021/03/26 02:33:28;;;;;;;1.57;1.20;;;7.30;98.20;;;;;;5027470;28;20539;-79
2021/03/26 02:36:34;;;;;;;1.53;1.20;;;7.30;98.20;;;;;;4998881;28;20494;-79
2021/03/26 02:39:13;;;;;;;1.57;1.20;;;7.30;98.20;;;;;;5019760;28;20467;-79
2021/03/26 02:41:43;;;;;;;1.57;1.30;;;7.30;98.20;;;;;;5009331;28;20582;-79
2021/03/26 02:44:20;;;;;;;1.60;1.23;;;7.30;98.20;;;;;;5020674;28;20459;-79
2021/03/26 02:46:58;;;;;;;1.53;1.20;;;7.30;98.20;;;;;;5002088;28;20483;-80
2021/03/26 02:49:33;;;;;;;1.50;1.30;;;7.30;98.20;;;;;;5016282;28;20455;-80
2021/03/26 02:52:07;;;;;;;1.53;1.20;;;7.30;98.20;;;;;;5011070;28;20565;-80
2021/03/26 02:54:39;;;;;;;1.60;1.30;;;7.30;98.20;;;;;;5014961;28;20844;-79
2021/03/26 02:57:09;;;;;;;1.53;1.20;;;7.20;98.20;;;;;;5009425;28;20989;-79
2021/03/26 02:59:40;;;;;;;1.60;1.30;;;7.20;98.20;;;;;;5016002;28;20897;-78
2021/03/26 03:02:10;;;;;;;1.60;1.30;;;7.20;98.20;;;;;;5011565;28;20483;-78
2021/03/26 03:04:43;;;;;;;1.60;1.23;;;7.20;98.20;;;;;;5012887;28;20468;-79
2021/03/26 03:07:18;;;;;;;1.60;1.30;;;7.10;98.20;;;;;;5008800;28;20502;-76
2021/03/26 03:09:50;;;;;;;1.60;1.30;;;7.10;98.20;;;;;;5015597;28;20785;-77
2021/03/26 03:12:20;;;;;;;1.57;1.20;;;7.10;98.20;;;;;;4993593;28;20490;-76
2021/03/26 03:14:52;;;;;;;1.60;1.20;;;7.10;98.20;;;;;;5007675;28;20468;-76
2021/03/26 03:17:23;;;;;;;1.60;1.30;;;7.10;98.20;;;;;;4997582;28;21061;-77
2021/03/26 03:19:55;;;;;;;1.60;1.23;;;7.10;98.20;;;;;;5006706;28;20900;-77
2021/03/26 03:22:27;;;;;;;1.60;1.30;;;7.10;98.20;;;;;;4997239;28;20479;-76
2021/03/26 03:25:00;;;;;;;1.60;1.30;;;7.10;98.20;;;;;;5011215;28;20472;-77
2021/03/26 03:27:41;;;;;;;1.60;1.30;;;7.10;98.20;;;;;;5013903;28;21032;-77
2021/03/26 03:30:20;;;;;;;1.57;1.30;;;7.10;98.20;;;;;;5005414;28;20507;-77
2021/03/26 03:32:58;;;;;;;1.60;1.30;;;7.00;98.20;;;;;;5013993;28;21200;-77
2021/03/26 03:35:32;;;;;;;1.60;1.30;;;7.00;98.20;;;;;;5003561;28;20511;-76
2021/03/26 03:38:09;;;;;;;1.60;1.33;;;7.00;98.20;;;;;;5015348;28;20478;-77
2021/03/26 03:40:44;;;;;;;1.60;1.30;;;7.00;98.20;;;;;;5011095;28;20763;-77
2021/03/26 03:43:14;;;;;;;1.60;1.20;;;7.00;98.20;;;;;;5013108;28;20548;-77
2021/03/26 03:45:47;;;;;;;1.57;1.30;;;6.90;98.20;;;;;;5007885;28;20527;-76
2021/03/26 03:48:18;;;;;;;1.60;1.40;;;6.90;98.20;;;;;;4999245;28;20975;-77
2021/03/26 03:50:56;;;;;;;1.60;1.37;;;6.90;98.20;;;;;;5011500;28;20822;-78
2021/03/26 03:53:25;;;;;;;1.60;1.20;;;6.90;98.20;;;;;;4995497;28;20480;-77
2021/03/26 03:55:58;;;;;;;1.57;1.23;;;6.90;98.20;;;;;;4996560;28;20488;-76
2021/03/26 03:58:29;;;;;;;1.60;1.30;;;6.90;98.20;;;;;;5009080;28;20975;-77
2021/03/26 04:01:02;;;;;;;1.60;1.20;;;6.90;98.20;;;;;;4992794;28;20467;-78
2021/03/26 04:03:35;;;;;;;1.60;1.30;;;6.90;98.20;;;;;;5023316;28;20490;-77
2021/03/26 04:06:05;;;;;;;1.60;1.30;;;6.90;98.20;;;;;;5003145;28;20488;-77
2021/03/26 04:08:37;;;;;;;2.37;2.17;;;6.90;98.20;;;;;;5020757;28;20460;-78
2021/03/26 04:11:14;;;;;;;1.60;1.40;;;6.90;98.20;;;;;;4999202;28;20472;-77
2021/03/26 04:13:59;;;;;;;1.60;1.27;;;6.90;98.20;;;;;;5011291;28;20463;-77
2021/03/26 04:16:27;;;;;;;1.60;1.33;;;6.90;98.20;;;;;;5002466;28;20490;-78
2021/03/26 04:19:00;;;;;;;1.60;1.27;;;6.80;98.20;;;;;;5008359;28;20766;-77
2021/03/26 04:21:31;;;;;;;1.60;1.30;;;6.80;98.20;;;;;;5001793;28;21025;-77
2021/03/26 04:24:01;;;;;;;1.60;1.30;;;6.80;98.20;;;;;;5009721;28;20531;-77
2021/03/26 04:26:34;;;;;;;1.60;1.30;;;6.80;98.20;;;;;;5002750;28;20487;-77
2021/03/26 04:29:06;;;;;;;1.60;1.30;;;6.80;98.20;;;;;;5019378;28;20538;-77
2021/03/26 04:31:50;;;;;;;1.60;1.20;;;6.80;98.20;;;;;;5001314;28;20620;-76
2021/03/26 04:34:18;;;;;;;1.60;1.40;;;6.80;98.20;;;;;;5014953;28;20514;-77
2021/03/26 04:36:52;;;;;;;1.60;1.30;;;6.80;98.20;;;;;;5000956;28;20486;-77
2021/03/26 04:39:25;;;;;;;1.60;1.30;;;6.80;98.20;;;;;;5015137;28;20852;-77
2021/03/26 04:41:58;;;;;;;1.57;1.30;;;6.80;98.20;;;;;;5000841;28;20889;-77
2021/03/26 04:44:33;;;;;;;1.60;1.50;;;6.80;98.20;;;;;;5015180;28;20515;-77
2021/03/26 04:47:06;;;;;;;1.60;1.30;;;6.80;98.20;;;;;;5007504;28;20542;-78
2021/03/26 04:49:37;;;;;;;1.60;1.40;;;6.80;98.20;;;;;;5010718;28;20833;-78
2021/03/26 04:52:09;;;;;;;1.57;1.30;;;6.80;98.20;;;;;;5007542;28;20514;-77
2021/03/26 04:54:39;;;;;;;1.60;1.30;;;6.80;98.20;;;;;;5016308;28;20464;-76
2021/03/26 04:57:12;;;;;;;2.00;1.80;;;6.80;98.20;;;;;;5011035;28;20483;-78
2021/03/26 04:59:46;;;;;;;1.60;1.27;;;6.80;98.20;;;;;;5011700;28;20809;-77
2021/03/26 05:02:15;;;;;;;1.60;1.33;;;6.90;98.20;;;;;;5005126;28;20481;-78
2021/03/26 05:04:44;;;;;;;1.60;1.30;;;6.90;98.20;;;;;;5013256;28;20470;-77
2021/03/26 05:07:14;;;;;;;1.70;1.57;;;6.90;98.20;;;;;;5009584;28;20518;-78
2021/03/26 05:09:45;;;;;;;1.60;1.20;;;6.90;98.20;;;;;;5012543;28;20464;-77
2021/03/26 05:12:16;;;;;;;1.60;1.30;;;6.80;98.20;;;;;;5007330;28;20499;-77
2021/03/26 05:14:48;;;;;;;1.57;1.27;;;6.90;98.20;;;;;;5014867;28;20510;-77
2021/03/26 05:17:22;;;;;;;1.60;1.30;;;6.90;98.20;;;;;;5008990;28;20487;-77
2021/03/26 05:19:54;;;;;;;1.60;1.37;;;6.90;98.20;;;;;;5012971;28;20463;-78
2021/03/26 05:22:37;;;;;;;1.57;1.30;;;6.90;98.20;;;;;;5005615;28;20488;-77
2021/03/26 05:25:10;;;;;;;1.60;1.40;;;6.90;98.20;;;;;;5009823;28;20836;-77
2021/03/26 05:27:38;;;;;;;1.60;1.30;;;6.90;98.20;;;;;;5013665;28;20522;-78
2021/03/26 05:30:08;;;;;;;1.60;1.30;;;6.90;98.20;;;;;;5011413;28;20487;-78
2021/03/26 05:32:40;;;;;;;1.60;1.30;;;6.90;98.20;;;;;;5011130;28;20696;-77
2021/03/26 05:35:12;;;;;;;1.60;1.30;;;6.90;98.20;;;;;;5000656;28;20529;-77
2021/03/26 05:37:44;;;;;;;1.57;1.30;;;6.90;98.20;;;;;;5011471;28;20487;-78
2021/03/26 05:40:33;;;;;;;1.60;1.20;;;6.90;98.20;;;;;;5009070;28;20457;-76
2021/03/26 05:43:05;;;;;;;1.60;1.30;;;6.90;98.20;;;;;;5014856;28;20475;-77
2021/03/26 05:45:41;;;;;;;1.57;1.30;;;6.90;98.20;;;;;;5008589;28;20998;-77
2021/03/26 05:48:33;;;;;;;1.60;1.30;;;6.90;98.20;;;;;;5010521;28;20487;-78
2021/03/26 05:51:14;;;;;;;1.60;1.40;;;6.90;98.20;;;;;;5000821;28;20768;-77
2021/03/26 05:53:48;;;;;;;1.60;1.20;;;7.00;98.20;;;;;;5014130;28;20464;-77
2021/03/26 05:56:23;;;;;;;1.57;1.23;;;7.00;98.20;;;;;;5001612;28;20482;-77
2021/03/26 05:59:13;;;;;;;13.33;8.67;;;7.00;98.20;;;;;;5015753;28;20526;-78
2021/03/26 06:02:00;;;;;;;1.90;1.70;;;7.00;98.20;;;;;;5002440;28;20475;-77
2021/03/26 06:05:00;;;;;;;1.60;1.50;;;7.00;98.20;;;;;;5012125;28;20547;-79
2021/03/26 06:07:50;;;;;;;1.60;1.20;;;7.00;98.20;;;;;;5008060;28;20494;-78
2021/03/26 06:10:36;;;;;;;1.60;1.40;;;7.10;98.20;;;;;;5007937;28;20480;-78
2021/03/26 06:13:44;;;;;;;1.50;1.20;;;7.10;98.20;;;;;;5005656;28;20487;-79
2021/03/26 06:16:28;;;;;;;1.60;1.30;;;7.10;98.20;;;;;;5002948;28;21282;-78
2021/03/26 06:19:25;;;;;;;1.60;1.30;;;7.20;98.20;;;;;;5018860;28;20474;-78
2021/03/26 06:22:07;;;;;;;1.57;1.20;;;7.30;98.20;;;;;;5000640;28;20487;-78
2021/03/26 06:25:08;;;;;;;1.60;1.30;;;7.40;98.20;;;;;;5009285;28;20460;-79
2021/03/26 06:27:41;;;;;;;1.60;1.20;;;7.50;98.20;;;;;;5015287;28;21087;-78
2021/03/26 06:30:19;;;;;;;1.60;1.40;;;7.60;98.20;;;;;;5009529;28;20464;-78
2021/03/26 06:33:38;;;;;;;1.60;1.27;;;7.70;98.20;;;;;;4995890;28;21075;-78
2021/03/26 06:36:30;;;;;;;1.60;1.30;;;7.90;98.20;;;;;;4997652;28;20826;-78
2021/03/26 06:39:19;;;;;;;1.60;1.20;;;8.10;98.20;;;;;;5004615;28;20475;-78
2021/03/26 06:42:07;;;;;;;1.60;1.30;;;8.20;98.20;;;;;;5002939;28;21001;-78
2021/03/26 06:45:05;;;;;;;1.60;1.30;;;8.30;98.20;;;;;;5013846;28;20783;-78
2021/03/26 06:47:48;;;;;;;1.60;1.20;;;8.40;98.20;;;;;;5016111;28;20494;-78
2021/03/26 06:50:29;;;;;;;1.50;1.20;;;8.60;98.20;;;;;;5014396;28;20460;-79
2021/03/26 06:53:09;;;;;;;1.60;1.20;;;8.70;98.20;;;;;;5014918;28;20485;-79
2021/03/26 06:55:48;;;;;;;1.60;1.30;;;8.80;98.20;;;;;;5012436;28;20484;-79
2021/03/26 06:59:19;;;;;;;1.57;1.27;;;8.90;98.20;;;;;;5004113;28;20510;-78
2021/03/26 07:02:04;;;;;;;;;;;;;;;;;;;;;
2021/03/26 07:04:53;;;;;;;1.70;1.60;;;9.10;98.20;;;;;;5014966;28;20464;-78
2021/03/26 07:07:56;;;;;;;1.60;1.20;;;9.20;98.20;;;;;;5015119;28;20487;-79
2021/03/26 07:10:37;;;;;;;1.60;1.10;;;9.40;98.20;;;;;;4987872;28;20547;-78
2021/03/26 07:13:32;;;;;;;1.57;1.20;;;9.60;98.20;;;;;;5008436;28;20572;-78
2021/03/26 07:16:11;;;;;;;1.57;1.13;;;9.80;98.20;;;;;;4995940;28;20515;-80
2021/03/26 07:18:56;;;;;;;1.60;1.30;;;9.80;98.20;;;;;;5024223;28;20467;-81
2021/03/26 07:21:46;;;;;;;1.53;1.17;;;10.00;98.20;;;;;;5006147;28;20497;-80
2021/03/26 07:24:51;;;;;;;2.90;2.37;;;10.10;98.20;;;;;;5020065;28;20975;-81
2021/03/26 07:27:26;;;;;;;1.60;1.20;;;10.20;98.20;;;;;;5006292;28;20494;-81
2021/03/26 07:30:30;;;;;;;1.57;1.20;;;10.30;98.20;;;;;;5013416;28;20475;-80
2021/03/26 07:33:08;;;;;;;1.53;1.10;;;10.40;98.20;;;;;;4941448;28;20957;-81
2021/03/26 07:35:47;;;;;;;1.53;1.20;;;10.60;98.20;;;;;;4999978;28;20959;-80
2021/03/26 07:38:36;;;;;;;1.60;1.20;;;10.70;98.20;;;;;;5000321;28;20494;-80
2021/03/26 07:41:17;;;;;;;1.60;1.20;;;10.90;98.20;;;;;;5004179;28;20460;-80
2021/03/26 07:43:58;;;;;;;1.60;1.10;;;11.10;98.20;;;;;;5021572;28;20475;-80
2021/03/26 07:46:49;;;;;;;1.57;1.00;;;11.30;98.20;;;;;;5004729;28;20632;-80
2021/03/26 07:49:33;;;;;;;1.80;1.50;;;11.50;98.20;;;;;;5016536;28;20499;-81
2021/03/26 07:52:05;;;;;;;1.53;1.10;;;11.50;97.80;;;;;;5008832;28;20485;-80
2021/03/26 07:55:19;;;;;;;1.60;1.10;;;11.50;98.20;;;;;;5016208;28;20716;-80
2021/03/26 07:58:25;;;;;;;2.47;2.17;;;11.60;98.20;;;;;;4994331;28;20515;-80
2021/03/26 08:01:09;;;;;;;1.60;1.10;;;11.90;97.80;;;;;;4994997;28;20492;-82
2021/03/26 08:04:10;;;;;;;1.57;1.00;;;12.10;96.90;;;;;;5023537;28;20460;-80
2021/03/26 08:07:27;;;;;;;1.50;1.00;;;12.20;96.40;;;;;;4999684;28;20487;-81
2021/03/26 08:10:26;;;;;;;1.50;1.10;;;12.50;96.20;;;;;;4955616;28;20483;-81
2021/03/26 08:13:09;;;;;;;1.50;1.00;;;12.70;95.60;;;;;;4994746;28;20483;-81
2021/03/26 08:15:49;;;;;;;1.60;1.00;;;12.90;94.00;;;;;;5007901;28;20468;-80
2021/03/26 08:18:28;;;;;;;1.60;1.10;;;13.10;93.00;;;;;;4997838;28;20477;-80
2021/03/26 08:21:03;;;;;;;1.83;1.23;;;13.30;91.90;;;;;;4999968;28;20480;-80
2021/03/26 08:23:41;;;;;;;1.60;1.10;;;13.40;91.50;;;;;;5022471;28;20455;-79
2021/03/26 08:26:18;;;;;;;1.53;1.00;;;13.50;90.90;;;;;;4996702;28;20561;-81
2021/03/26 08:29:00;;;;;;;1.50;1.00;;;13.60;89.90;;;;;;5022625;28;20551;-80
2021/03/26 08:31:46;;;;;;;1.53;1.00;;;13.70;90.20;;;;;;5004048;28;20509;-80
2021/03/26 08:34:39;;;;;;;1.57;1.00;;;13.90;90.10;;;;;;5015283;28;20499;-80
2021/03/26 08:37:14;;;;;;;1.60;1.20;;;14.00;88.80;;;;;;5009777;28;20777;-81
2021/03/26 08:39:44;;;;;;;1.53;1.00;;;14.10;88.30;;;;;;5014384;28;20963;-81
2021/03/26 08:42:18;;;;;;;1.60;1.13;;;14.10;88.40;;;;;;5008025;28;20491;-80
2021/03/26 08:44:50;;;;;;;1.57;1.00;;;14.20;88.00;;;;;;5013756;28;20558;-80
2021/03/26 08:47:30;;;;;;;1.57;1.10;;;14.40;87.40;;;;;;5010550;28;20525;-80
2021/03/26 08:50:20;;;;;;;1.60;1.00;;;14.50;87.50;;;;;;5004095;28;20839;-79
2021/03/26 08:53:01;;;;;;;1.60;1.10;;;14.70;87.20;;;;;;5009327;28;20638;-79
2021/03/26 08:55:41;;;;;;;1.57;1.00;;;14.90;87.40;;;;;;5007601;28;20578;-80
2021/03/26 08:58:31;;;;;;;1.50;1.00;;;15.10;86.80;;;;;;5014951;28;20566;-78
2021/03/26 09:01:35;;;;;;;1.60;1.00;;;15.30;86.20;;;;;;4996777;28;20910;-77
2021/03/26 09:04:36;;;;;;;1.60;1.00;;;15.40;84.80;;;;;;4996001;28;20467;-76
2021/03/26 09:07:16;;;;;;;1.57;1.00;;;15.40;83.80;;;;;;4997497;28;20973;-79
2021/03/26 09:10:19;;;;;;;1.57;1.00;;;15.50;84.20;;;;;;5007463;28;20460;-78
2021/03/26 09:12:57;;;;;;;1.57;1.07;;;15.70;84.00;;;;;;5015620;28;21051;-79
2021/03/26 09:15:47;;;;;;;1.60;1.00;;;15.90;84.20;;;;;;5011051;28;20518;-77
2021/03/26 09:18:24;;;;;;;1.57;1.00;;;16.00;83.10;;;;;;4993320;28;20622;-79
2021/03/26 09:20:58;;;;;;;1.60;1.00;;;16.10;83.10;;;;;;4999450;28;20499;-79
2021/03/26 09:23:48;;;;;;;1.60;1.07;;;16.30;81.90;;;;;;5023151;28;20897;-79
2021/03/26 09:26:36;;;;;;;1.50;0.90;;;16.30;81.70;;;;;;5001127;28;20785;-79
2021/03/26 09:29:08;;;;;;;1.60;1.00;;;16.40;81.80;;;;;;5018784;28;20879;-79
2021/03/26 09:31:42;;;;;;;1.60;1.00;;;16.50;81.00;;;;;;4996370;28;20487;-80
2021/03/26 09:34:22;;;;;;;1.60;1.10;;;16.60;81.00;;;;;;5018069;28;20545;-80
2021/03/26 09:37:04;;;;;;;1.53;1.00;;;16.80;81.40;;;;;;4998158;28;20526;-80
2021/03/26 09:39:34;;;;;;;1.53;1.00;;;16.90;79.80;;;;;;5007940;28;20472;-79
2021/03/26 09:42:18;;;;;;;1.50;1.00;;;16.90;79.20;;;;;;5002556;28;20544;-80
2021/03/26 09:44:50;;;;;;;1.57;0.90;;;17.00;78.40;;;;;;5014187;28;20511;-80
2021/03/26 09:47:20;;;;;;;2.00;1.63;;;17.00;78.30;;;;;;5006823;28;20563;-79
2021/03/26 09:49:51;;;;;;;1.50;0.93;;;17.10;79.20;;;;;;5008057;28;20476;-79
2021/03/26 09:52:24;;;;;;;1.70;1.40;;;17.20;78.70;;;;;;4993674;28;20508;-80
2021/03/26 09:54:54;;;;;;;1.50;0.90;;;17.30;77.70;;;;;;5006571;28;20465;-80
2021/03/26 09:57:45;;;;;;;2.17;1.57;;;17.40;77.10;;;;;;5009412;28;20483;-79
2021/03/26 10:00:51;;;;;;;1.60;1.10;;;17.40;76.50;;;;;;5004949;28;20833;-79
2021/03/26 10:03:45;;;;;;;1.57;0.90;;;17.30;76.30;;;;;;4936266;28;20573;-79
2021/03/26 10:06:17;;;;;;;1.53;1.00;;;17.30;76.10;;;;;;4984124;28;20487;-79
2021/03/26 10:08:58;;;;;;;1.57;1.00;;;17.30;76.40;;;;;;5009129;28;20467;-79
2021/03/26 10:11:29;;;;;;;1.50;0.90;;;17.20;76.30;;;;;;4996788;28;20583;-79
2021/03/26 10:14:00;;;;;;;1.50;1.00;;;17.30;76.30;;;;;;5013566;28;20467;-79
2021/03/26 10:16:40;;;;;;;1.53;0.97;;;17.40;76.50;;;;;;5001869;28;20474;-79
2021/03/26 10:19:10;;;;;;;1.50;1.00;;;17.60;76.10;;;;;;5015832;28;20550;-79
2021/03/26 10:21:46;;;;;;;1.50;1.00;;;17.80;76.30;;;;;;4999564;28;20550;-79
2021/03/26 10:24:20;;;;;;;1.57;1.00;;;18.00;75.40;;;;;;5021809;28;20460;-79
2021/03/26 10:26:52;;;;;;;1.50;0.97;;;18.10;74.10;;;;;;5010114;28;20561;-78
2021/03/26 10:29:28;;;;;;;1.53;0.90;;;17.90;74.10;;;;;;5019886;28;21018;-78
2021/03/26 10:31:57;;;;;;;1.50;0.90;;;17.70;74.80;;;;;;5009664;28;20505;-78
2021/03/26 10:34:32;;;;;;;1.50;0.90;;;17.60;75.10;;;;;;5021009;28;20471;-78
2021/03/26 10:37:15;;;;;;;1.50;0.90;;;17.60;74.20;;;;;;5010392;28;21047;-76
2021/03/26 10:39:50;;;;;;;1.50;0.90;;;17.50;74.30;;;;;;5010802;28;20475;-77
2021/03/26 10:42:32;;;;;;;1.57;0.90;;;17.50;74.70;;;;;;5011145;28;20574;-76
2021/03/26 10:45:23;;;;;;;1.57;0.90;;;17.50;74.80;;;;;;5012782;28;20533;-79
2021/03/26 10:47:53;;;;;;;1.50;1.00;;;17.40;73.50;;;;;;5010915;28;21083;-78
2021/03/26 10:50:29;;;;;;;1.50;0.90;;;17.40;73.40;;;;;;5011369;28;20517;-79
2021/03/26 10:53:03;;;;;;;1.57;1.00;;;17.50;74.40;;;;;;5016948;28;20505;-78
2021/03/26 10:55:36;;;;;;;1.53;1.00;;;17.60;73.50;;;;;;5008296;28;20472;-78
2021/03/26 10:58:08;;;;;;;1.50;0.90;;;17.60;74.30;;;;;;5013485;28;20517;-79
2021/03/26 11:00:37;;;;;;;1.50;1.00;;;17.60;74.40;;;;;;5012507;28;20460;-78
2021/03/26 11:03:08;;;;;;;1.53;1.00;;;17.60;74.60;;;;;;5016266;28;21195;-78
2021/03/26 11:05:44;;;;;;;1.70;1.30;;;17.60;75.50;;;;;;5006133;28;20920;-78
2021/03/26 11:08:28;;;;;;;1.50;1.00;;;17.60;74.80;;;;;;4999398;28;20575;-76
2021/03/26 11:11:05;;;;;;;1.53;1.00;;;17.80;75.20;;;;;;5004774;28;20471;-77
2021/03/26 11:13:40;;;;;;;1.50;1.00;;;17.90;73.80;;;;;;5024274;28;20467;-75
2021/03/26 11:16:13;;;;;;;1.53;1.00;;;18.10;75.00;;;;;;4999378;28;20483;-77
2021/03/26 11:18:54;;;;;;;1.50;0.90;;;18.20;73.50;;;;;;5012324;28;20468;-76
2021/03/26 11:21:23;;;;;;;1.50;0.90;;;18.20;72.80;;;;;;4998488;28;20934;-76
2021/03/26 11:24:01;;;;;;;1.50;0.90;;;18.20;73.50;;;;;;5022600;28;20460;-77
2021/03/26 11:26:32;;;;;;;1.53;0.90;;;18.50;73.40;;;;;;4997010;28;20479;-76
2021/03/26 11:29:12;;;;;;;1.50;1.03;;;18.60;72.60;;;;;;5007808;28;20556;-77
2021/03/26 11:31:44;;;;;;;1.50;0.90;;;18.70;72.20;;;;;;4999252;28;21006;-77
2021/03/26 11:34:28;;;;;;;1.53;0.90;;;19.00;72.20;;;;;;5006469;28;20559;-75
2021/03/26 11:37:16;;;;;;;1.57;1.00;;;19.30;68.50;;;;;;5006510;28;20491;-78
2021/03/26 11:39:54;;;;;;;1.50;0.90;;;19.30;67.50;;;;;;5012998;28;20498;-78
2021/03/26 11:42:47;;;;;;;1.53;0.90;;;18.90;68.20;;;;;;5010555;28;20510;-78
2021/03/26 11:45:35;;;;;;;1.70;1.30;;;18.70;69.00;;;;;;5008901;28;20944;-79
2021/03/26 11:48:09;;;;;;;1.50;0.90;;;18.30;68.70;;;;;;5008541;28;20475;-78
2021/03/26 11:50:39;;;;;;;1.50;0.90;;;18.20;70.10;;;;;;5009511;28;21009;-79
2021/03/26 11:53:24;;;;;;;1.50;1.00;;;18.30;70.70;;;;;;5013061;28;20491;-78
2021/03/26 11:56:16;;;;;;;1.50;0.90;;;18.70;70.10;;;;;;4990350;28;20483;-78
2021/03/26 11:59:03;;;;;;;1.50;1.00;;;19.00;68.10;;;;;;5015656;28;20525;-78
2021/03/26 12:01:38;;;;;;;1.50;0.90;;;19.00;67.80;;;;;;4991075;28;20486;-78
2021/03/26 12:04:13;;;;;;;1.50;1.00;;;19.00;68.20;;;;;;5017021;28;20482;-79
2021/03/26 12:06:46;;;;;;;1.50;0.90;;;19.10;67.90;;;;;;5000743;28;20487;-78
2021/03/26 12:09:35;;;;;;;1.93;1.60;;;19.10;68.60;;;;;;5010732;28;20472;-79
2021/03/26 12:12:10;;;;;;;1.50;1.00;;;19.10;69.10;;;;;;5000699;28;20973;-79
2021/03/26 12:14:51;;;;;;;1.53;0.90;;;19.10;68.90;;;;;;5013738;28;20813;-80
2021/03/26 12:17:38;;;;;;;1.60;1.20;;;19.10;68.10;;;;;;5008667;28;20480;-78
2021/03/26 12:20:25;;;;;;;1.53;0.90;;;18.80;68.60;;;;;;5015979;28;20464;-78
2021/03/26 12:23:23;;;;;;;1.50;0.97;;;18.80;70.60;;;;;;5013160;28;20478;-78
2021/03/26 12:25:59;;;;;;;1.50;0.90;;;18.90;70.50;;;;;;4996122;28;20492;-79
2021/03/26 12:29:02;;;;;;;1.50;0.90;;;18.90;70.10;;;;;;5022673;28;20809;-80
2021/03/26 12:31:40;;;;;;;1.50;0.90;;;18.80;69.00;;;;;;5006105;28;20480;-79
2021/03/26 12:34:16;;;;;;;1.50;0.97;;;18.70;70.10;;;;;;5021904;28;20460;-78
2021/03/26 12:36:51;;;;;;;1.50;0.90;;;18.70;70.30;;;;;;5012146;28;20493;-80
2021/03/26 12:39:28;;;;;;;1.60;1.20;;;18.90;69.20;;;;;;5014010;28;20498;-78
2021/03/26 12:42:03;;;;;;;1.50;0.90;;;19.00;69.60;;;;;;5009169;28;20498;-78
2021/03/26 12:44:36;;;;;;;1.50;0.90;;;19.20;69.80;;;;;;5019184;28;20491;-79
2021/03/26 12:47:33;;;;;;;1.50;0.90;;;19.50;69.10;;;;;;5010427;28;20510;-79
2021/03/26 12:50:06;;;;;;;1.53;0.90;;;19.50;67.00;;;;;;5014308;28;20524;-79
2021/03/26 12:52:46;;;;;;;1.53;1.00;;;19.50;67.20;;;;;;5002520;28;20538;-79
2021/03/26 12:55:23;;;;;;;1.53;0.90;;;19.30;66.70;;;;;;5006400;28;20574;-78
2021/03/26 12:58:02;;;;;;;1.50;0.97;;;19.10;67.30;;;;;;5008566;28;20487;-78
2021/03/26 13:00:38;;;;;;;1.50;1.00;;;19.00;67.70;;;;;;5004235;28;20475;-78
2021/03/26 13:03:14;;;;;;;1.53;0.90;;;18.90;67.90;;;;;;5006582;28;20486;-78
2021/03/26 13:05:46;;;;;;;1.53;0.93;;;18.90;68.50;;;;;;5005879;28;20475;-78
2021/03/26 13:08:18;;;;;;;1.50;1.00;;;18.70;68.20;;;;;;4991275;28;21002;-79
2021/03/26 13:10:53;;;;;;;1.53;1.00;;;18.50;68.30;;;;;;5007985;28;20905;-78
2021/03/26 13:13:31;;;;;;;1.50;0.90;;;18.50;67.80;;;;;;4988769;28;20984;-78
2021/03/26 13:16:23;;;;;;;1.50;1.00;;;18.70;68.70;;;;;;4991883;28;21043;-79
2021/03/26 13:18:55;;;;;;;1.50;1.00;;;18.90;68.40;;;;;;5013102;28;20471;-80
2021/03/26 13:21:39;;;;;;;1.50;1.00;;;18.90;67.80;;;;;;4999132;28;21001;-79
2021/03/26 13:24:32;;;;;;;1.50;1.00;;;18.90;68.30;;;;;;5015681;28;20448;-78
2021/03/26 13:27:27;;;;;;;1.50;0.90;;;19.20;67.90;;;;;;4999604;28;20998;-79
2021/03/26 13:30:00;;;;;;;1.50;1.00;;;19.20;67.00;;;;;;5006704;28;20530;-80
2021/03/26 13:32:37;;;;;;;1.50;0.90;;;19.00;67.20;;;;;;5007390;28;20511;-79
2021/03/26 13:35:08;;;;;;;1.50;1.00;;;18.80;67.20;;;;;;5004469;28;20493;-78
2021/03/26 13:37:40;;;;;;;1.50;0.90;;;19.00;66.50;;;;;;5012066;28;20495;-78
2021/03/26 13:40:10;;;;;;;1.50;0.90;;;19.30;66.10;;;;;;5010981;28;20524;-77
2021/03/26 13:42:42;;;;;;;1.50;0.90;;;19.60;66.80;;;;;;5011702;28;20586;-77
2021/03/26 13:45:13;;;;;;;1.50;0.90;;;19.90;63.80;;;;;;5004162;28;20592;-79